createdAt,value
2018-05-09T00:02:07.795Z,10.20
2018-05-09T00:04:36.063Z,10.20
2018-05-09T00:07:04.308Z,10.10
2018-05-09T00:09:31.773Z,10.10
2018-05-09T00:11:59.265Z,10.00
2018-05-09T00:14:27.523Z,10.10
2018-05-09T00:16:55.800Z,10.20
2018-05-09T00:19:24.068Z,10.20
2018-05-09T00:21:51.542Z,10.20
2018-05-09T00:24:19.776Z,10.20
2018-05-09T00:26:47.291Z,10.20
2018-05-09T00:29:14.791Z,10.10
2018-05-09T00:31:42.311Z,10.00
2018-05-09T00:34:09.804Z,9.90
2018-05-09T00:36:37.315Z,9.80
2018-05-09T00:39:04.765Z,9.80
2018-05-09T00:41:32.231Z,9.70
2018-05-09T00:43:59.710Z,9.80
2018-05-09T00:46:27.203Z,9.70
2018-05-09T00:48:54.677Z,9.70
2018-05-09T00:51:22.940Z,9.70
2018-05-09T00:53:50.463Z,9.70
2018-05-09T00:56:17.980Z,9.60
2018-05-09T00:58:46.248Z,9.70
2018-05-09T01:01:14.512Z,9.60
2018-05-09T01:03:41.977Z,9.60
2018-05-09T01:06:10.210Z,9.60
2018-05-09T01:08:37.684Z,9.60
2018-05-09T01:11:05.144Z,9.40
2018-05-09T01:13:32.613Z,9.20
2018-05-09T01:16:00.120Z,9.10
2018-05-09T01:18:27.632Z,9.00
2018-05-09T01:20:55.128Z,9.00
2018-05-09T01:23:22.636Z,9.00
2018-05-09T01:25:50.132Z,8.90
2018-05-09T01:28:17.639Z,8.90
2018-05-09T01:30:45.140Z,8.90
2018-05-09T01:33:12.614Z,9.00
2018-05-09T01:35:40.112Z,9.00
2018-05-09T01:38:07.638Z,9.00
2018-05-09T01:40:35.099Z,8.90
2018-05-09T01:43:02.562Z,8.90
2018-05-09T01:45:30.023Z,9.00
2018-05-09T01:47:57.498Z,8.90
2018-05-09T01:50:24.954Z,9.00
2018-05-09T01:52:52.431Z,9.00
2018-05-09T01:55:19.885Z,9.10
2018-05-09T01:57:47.351Z,9.00
2018-05-09T02:00:15.631Z,9.20
2018-05-09T02:02:43.849Z,9.30
2018-05-09T02:05:11.321Z,9.30
2018-05-09T02:07:38.819Z,9.30
2018-05-09T02:10:07.143Z,9.20
2018-05-09T02:12:34.610Z,9.20
2018-05-09T02:15:02.124Z,9.20
2018-05-09T02:17:29.654Z,9.30
2018-05-09T02:19:57.076Z,9.30
2018-05-09T02:22:25.298Z,9.30
2018-05-09T02:24:53.581Z,9.30
2018-05-09T02:27:21.844Z,9.40
2018-05-09T02:29:49.324Z,9.30
2018-05-09T02:32:16.784Z,9.40
2018-05-09T02:34:44.288Z,9.50
2018-05-09T02:37:11.742Z,9.60
2018-05-09T02:39:39.273Z,9.70
2018-05-09T02:42:06.784Z,9.70
2018-05-09T02:44:34.305Z,9.70
2018-05-09T02:47:01.836Z,9.70
2018-05-09T02:49:29.356Z,9.70
2018-05-09T02:51:56.903Z,9.70
2018-05-09T02:54:24.380Z,9.60
2018-05-09T02:56:51.883Z,9.60
2018-05-09T02:59:19.410Z,9.70
2018-05-09T03:01:47.713Z,9.60
2018-05-09T03:04:15.241Z,9.60
2018-05-09T03:06:43.522Z,9.60
2018-05-09T03:09:11.783Z,9.50
2018-05-09T03:11:39.309Z,9.50
2018-05-09T03:14:06.796Z,9.50
2018-05-09T03:16:34.283Z,9.50
2018-05-09T03:19:01.820Z,9.60
2018-05-09T03:21:30.104Z,9.70
2018-05-09T03:23:58.351Z,9.70
2018-05-09T03:26:25.885Z,9.70
2018-05-09T03:28:53.352Z,9.70
2018-05-09T03:31:20.880Z,9.70
2018-05-09T03:33:48.379Z,9.70
2018-05-09T03:36:15.903Z,9.60
2018-05-09T03:38:43.395Z,9.60
2018-05-09T03:41:10.890Z,9.70
2018-05-09T03:43:39.190Z,9.80
2018-05-09T03:46:06.699Z,9.80
2018-05-09T03:48:34.207Z,9.80
2018-05-09T03:51:01.695Z,9.80
2018-05-09T03:53:29.216Z,9.80
2018-05-09T03:55:56.751Z,9.80
2018-05-09T03:58:24.985Z,9.70
2018-05-09T04:00:52.471Z,9.80
2018-05-09T04:03:45.562Z,9.70
2018-05-09T04:06:24.734Z,9.70
2018-05-09T04:09:04.788Z,9.70
2018-05-09T04:11:32.318Z,9.80
2018-05-09T04:13:59.809Z,9.80
2018-05-09T04:16:27.452Z,9.80
2018-05-09T04:18:55.682Z,9.80
2018-05-09T04:21:23.200Z,9.80
2018-05-09T04:23:50.681Z,9.80
2018-05-09T04:26:18.991Z,10.10
2018-05-09T04:28:46.508Z,10.10
2018-05-09T04:31:13.989Z,10.30
2018-05-09T04:33:42.012Z,10.40
2018-05-09T04:36:09.565Z,10.70
2018-05-09T04:38:37.946Z,10.90
2018-05-09T04:41:05.484Z,11.00
2018-05-09T04:43:32.958Z,11.20
2018-05-09T04:46:00.490Z,11.40
2018-05-09T04:48:28.049Z,11.50
2018-05-09T04:50:55.552Z,11.60
2018-05-09T04:53:23.110Z,11.60
2018-05-09T04:55:50.580Z,11.70
2018-05-09T04:58:18.886Z,11.90
2018-05-09T05:00:46.392Z,11.90
2018-05-09T05:03:13.887Z,12.00
2018-05-09T05:05:41.378Z,12.20
2018-05-09T05:08:08.891Z,12.30
2018-05-09T05:10:37.147Z,12.70
2018-05-09T05:13:04.676Z,12.70
2018-05-09T05:15:32.181Z,13.00
2018-05-09T05:18:00.475Z,13.90
2018-05-09T05:20:27.961Z,13.80
2018-05-09T05:22:55.485Z,14.90
2018-05-09T05:25:23.738Z,17.50
2018-05-09T05:27:51.289Z,17.40
2018-05-09T05:30:18.853Z,18.60
2018-05-09T05:32:46.433Z,19.50
2018-05-09T05:35:13.864Z,20.30
2018-05-09T05:37:41.407Z,20.50
2018-05-09T05:40:09.707Z,21.00
2018-05-09T05:42:37.186Z,21.80
2018-05-09T05:45:05.622Z,23.80
2018-05-09T05:47:33.859Z,24.00
2018-05-09T05:50:01.408Z,24.00
2018-05-09T05:52:29.131Z,24.70
2018-05-09T05:54:56.678Z,25.60
2018-05-09T05:57:24.243Z,26.20
2018-05-09T05:59:51.803Z,27.00
2018-05-09T06:02:19.331Z,27.50
2018-05-09T06:04:46.866Z,28.20
2018-05-09T06:07:14.407Z,28.80
2018-05-09T06:09:42.654Z,28.30
2018-05-09T06:12:10.364Z,28.30
2018-05-09T06:14:37.912Z,28.70
2018-05-09T06:17:06.328Z,30.20
2018-05-09T06:19:34.019Z,30.20
2018-05-09T06:22:01.568Z,30.30
2018-05-09T06:24:29.107Z,31.00
2018-05-09T06:26:56.751Z,31.00
2018-05-09T06:29:24.235Z,31.10
2018-05-09T06:31:51.777Z,31.20
2018-05-09T06:34:19.391Z,31.80
2018-05-09T06:36:47.710Z,32.30
2018-05-09T06:39:15.282Z,32.20
2018-05-09T06:41:42.942Z,32.30
2018-05-09T06:44:10.436Z,32.00
2018-05-09T06:46:37.923Z,32.20
2018-05-09T06:49:06.243Z,31.70
2018-05-09T06:51:33.752Z,31.80
2018-05-09T06:54:02.415Z,32.10
2018-05-09T06:56:29.958Z,32.00
2018-05-09T06:58:57.570Z,32.40
2018-05-09T07:01:25.040Z,32.60
2018-05-09T07:03:56.877Z,32.90
2018-05-09T07:06:24.786Z,33.00
2018-05-09T07:08:52.244Z,33.10
2018-05-09T07:11:19.776Z,33.40
2018-05-09T07:13:47.287Z,33.60
2018-05-09T07:16:14.796Z,33.30
2018-05-09T07:18:42.340Z,32.90
2018-05-09T07:21:09.838Z,33.10
2018-05-09T07:23:37.326Z,32.00
2018-05-09T07:26:05.581Z,31.80
2018-05-09T07:28:33.116Z,31.80
2018-05-09T07:31:00.645Z,31.40
2018-05-09T07:33:28.120Z,30.20
2018-05-09T07:35:55.650Z,31.90
2018-05-09T07:38:23.882Z,33.40
2018-05-09T07:40:51.417Z,33.40
2018-05-09T07:43:18.936Z,33.50
2018-05-09T07:45:47.224Z,33.30
2018-05-09T07:48:14.748Z,33.30
2018-05-09T07:50:42.264Z,33.10
2018-05-09T07:53:09.738Z,32.80
2018-05-09T07:55:37.323Z,33.50
2018-05-09T07:58:05.500Z,32.60
2018-05-09T08:00:32.989Z,32.60
2018-05-09T08:03:00.459Z,33.90
2018-05-09T08:05:27.983Z,33.20
2018-05-09T08:07:56.256Z,33.70
2018-05-09T08:10:24.567Z,33.40
2018-05-09T08:12:52.057Z,33.40
2018-05-09T08:15:19.547Z,31.40
2018-05-09T08:17:47.838Z,28.40
2018-05-09T08:20:16.137Z,26.40
2018-05-09T08:22:43.648Z,26.40
2018-05-09T08:25:11.172Z,26.30
2018-05-09T08:27:39.421Z,28.30
2018-05-09T08:30:06.968Z,28.20
2018-05-09T08:32:34.434Z,27.80
2018-05-09T08:35:01.945Z,26.50
2018-05-09T08:37:29.500Z,26.80
2018-05-09T08:39:57.028Z,26.90
2018-05-09T08:42:24.524Z,26.40
2018-05-09T08:44:52.052Z,26.80
2018-05-09T08:47:19.554Z,27.40
2018-05-09T08:49:47.841Z,27.70
2018-05-09T08:52:16.113Z,27.70
2018-05-09T08:54:44.387Z,29.00
2018-05-09T08:57:12.651Z,28.10
2018-05-09T08:59:40.174Z,28.00
2018-05-09T09:02:07.995Z,28.60
2018-05-09T09:04:36.238Z,26.40
2018-05-09T09:07:03.741Z,26.40
2018-05-09T09:09:31.287Z,25.40
2018-05-09T09:11:59.552Z,24.20
2018-05-09T09:14:27.845Z,23.80
2018-05-09T09:16:55.418Z,23.70
2018-05-09T09:19:22.932Z,23.50
2018-05-09T09:21:50.472Z,23.40
2018-05-09T09:24:17.918Z,23.10
2018-05-09T09:26:45.448Z,23.00
2018-05-09T09:29:12.991Z,22.90
2018-05-09T09:31:41.288Z,22.40
2018-05-09T09:34:08.838Z,22.40
2018-05-09T09:36:36.364Z,22.40
2018-05-09T09:39:03.880Z,22.50
2018-05-09T09:41:31.405Z,22.30
2018-05-09T09:43:58.918Z,22.30
2018-05-09T09:46:26.430Z,22.20
2018-05-09T09:48:53.952Z,21.70
2018-05-09T09:51:21.474Z,21.30
2018-05-09T09:53:48.968Z,21.30
2018-05-09T09:56:17.278Z,21.50
2018-05-09T09:58:44.800Z,21.50
2018-05-09T10:01:12.281Z,21.90
2018-05-09T10:03:39.786Z,22.00
2018-05-09T10:06:07.302Z,22.10
2018-05-09T10:08:34.850Z,22.30
2018-05-09T10:11:03.128Z,22.50
2018-05-09T10:13:31.433Z,22.50
2018-05-09T10:15:58.921Z,22.40
2018-05-09T10:18:26.428Z,22.50
2018-05-09T10:20:53.962Z,22.40
2018-05-09T10:23:22.322Z,22.60
2018-05-09T10:25:49.698Z,22.60
2018-05-09T10:28:17.950Z,22.90
2018-05-09T10:30:45.466Z,22.80
2018-05-09T10:33:12.998Z,22.90
2018-05-09T10:35:41.278Z,22.90
2018-05-09T10:38:09.595Z,23.10
2018-05-09T10:40:37.075Z,23.00
2018-05-09T10:43:04.645Z,23.20
2018-05-09T10:45:32.174Z,23.20
2018-05-09T10:47:59.696Z,22.90
2018-05-09T10:50:27.218Z,22.90
2018-05-09T10:52:54.730Z,23.00
2018-05-09T10:55:22.207Z,23.10
2018-05-09T10:57:49.721Z,23.10
2018-05-09T11:00:17.250Z,23.00
2018-05-09T11:02:45.542Z,22.90
2018-05-09T11:05:13.806Z,22.90
2018-05-09T11:07:41.276Z,22.80
2018-05-09T11:10:09.569Z,22.90
2018-05-09T11:12:37.075Z,22.80
2018-05-09T11:15:04.613Z,22.50
2018-05-09T11:17:32.163Z,22.40
2018-05-09T11:19:59.668Z,22.80
2018-05-09T11:22:27.168Z,23.10
2018-05-09T11:24:54.660Z,23.40
2018-05-09T11:27:22.184Z,23.50
2018-05-09T11:29:49.695Z,23.10
2018-05-09T11:32:17.165Z,22.60
2018-05-09T11:34:45.438Z,22.40
2018-05-09T11:37:12.953Z,22.40
2018-05-09T11:39:40.453Z,22.30
2018-05-09T11:42:08.703Z,22.60
2018-05-09T11:44:36.170Z,22.50
2018-05-09T11:47:03.709Z,22.60
2018-05-09T11:49:31.183Z,22.80
2018-05-09T11:51:58.662Z,23.10
2018-05-09T11:54:26.912Z,23.30
2018-05-09T11:56:54.408Z,23.30
2018-05-09T11:59:22.669Z,23.10
2018-05-09T12:01:50.209Z,23.10
2018-05-09T12:04:17.740Z,22.90
2018-05-09T12:06:45.236Z,22.80
2018-05-09T12:09:12.751Z,22.80
2018-05-09T12:11:40.269Z,22.60
2018-05-09T12:14:08.551Z,22.50
2018-05-09T12:16:36.798Z,22.50
2018-05-09T12:19:04.313Z,22.60
2018-05-09T12:21:31.792Z,22.50
2018-05-09T12:23:59.332Z,22.70
2018-05-09T12:26:26.884Z,22.80
2018-05-09T12:28:54.358Z,23.00
2018-05-09T12:31:21.881Z,23.00
2018-05-09T12:33:49.358Z,22.70
2018-05-09T12:36:16.874Z,22.40
2018-05-09T12:38:45.165Z,21.90
2018-05-09T12:41:12.818Z,21.90
2018-05-09T12:43:41.084Z,22.00
2018-05-09T12:46:09.393Z,22.00
2018-05-09T12:48:37.023Z,22.00
2018-05-09T12:51:04.362Z,21.90
2018-05-09T12:53:31.888Z,21.80
2018-05-09T12:55:59.404Z,21.90
2018-05-09T12:58:27.687Z,21.90
2018-05-09T13:00:55.161Z,21.90
2018-05-09T13:03:22.715Z,22.10
2018-05-09T13:05:50.258Z,22.30
2018-05-09T13:08:18.511Z,22.60
2018-05-09T13:10:46.033Z,22.60
2018-05-09T13:13:13.551Z,22.80
2018-05-09T13:15:41.072Z,23.10
2018-05-09T13:18:08.589Z,23.20
2018-05-09T13:20:36.139Z,23.20
2018-05-09T13:23:04.539Z,23.20
2018-05-09T13:25:32.042Z,23.20
2018-05-09T13:28:00.352Z,22.70
2018-05-09T13:30:28.002Z,22.70
2018-05-09T13:32:55.536Z,22.60
2018-05-09T13:35:23.080Z,22.40
2018-05-09T13:37:51.478Z,22.20
2018-05-09T13:40:19.733Z,22.20
2018-05-09T13:42:47.367Z,22.20
2018-05-09T13:45:14.918Z,22.30
2018-05-09T13:47:42.501Z,22.30
2018-05-09T13:50:10.124Z,22.40
2018-05-09T13:52:37.656Z,22.60
2018-05-09T13:55:05.995Z,22.90
2018-05-09T13:57:33.558Z,22.80
2018-05-09T14:00:01.094Z,23.30
2018-05-09T14:02:28.571Z,23.70
2018-05-09T14:04:56.208Z,23.90
2018-05-09T14:07:23.844Z,24.00
2018-05-09T14:09:51.397Z,24.00
2018-05-09T14:12:19.636Z,23.70
2018-05-09T14:14:47.192Z,23.60
2018-05-09T14:17:14.662Z,23.50
2018-05-09T14:19:42.170Z,23.50
2018-05-09T14:22:10.403Z,23.10
2018-05-09T14:24:38.669Z,23.10
2018-05-09T14:27:06.187Z,23.10
2018-05-09T14:29:33.654Z,23.30
2018-05-09T14:32:01.136Z,23.20
2018-05-09T14:34:28.654Z,23.10
2018-05-09T14:36:56.160Z,22.80
2018-05-09T14:39:23.696Z,22.80
2018-05-09T14:41:51.189Z,22.60
2018-05-09T14:44:19.461Z,22.60
2018-05-09T14:46:47.758Z,22.70
2018-05-09T14:49:15.271Z,22.70
2018-05-09T14:51:42.785Z,22.80
2018-05-09T14:54:10.271Z,22.90
2018-05-09T14:56:37.739Z,23.10
2018-05-09T14:59:05.222Z,23.10
2018-05-09T15:01:33.511Z,23.00
2018-05-09T15:04:01.011Z,23.00
2018-05-09T15:06:28.486Z,22.90
2018-05-09T15:08:56.054Z,22.80
2018-05-09T15:11:23.579Z,22.70
2018-05-09T15:13:51.087Z,22.60
2018-05-09T15:16:19.372Z,22.60
2018-05-09T15:18:47.607Z,22.80
2018-05-09T15:21:15.137Z,22.80
2018-05-09T15:23:43.447Z,22.90
2018-05-09T15:26:10.986Z,23.10
2018-05-09T15:28:38.507Z,23.20
2018-05-09T15:31:06.020Z,23.30
2018-05-09T15:33:33.506Z,23.50
2018-05-09T15:36:01.912Z,23.70
2018-05-09T15:38:29.421Z,23.60
2018-05-09T15:40:56.972Z,23.70
2018-05-09T15:43:25.235Z,23.60
2018-05-09T15:45:52.710Z,23.60
2018-05-09T15:48:20.270Z,23.60
2018-05-09T15:50:47.755Z,23.60
2018-05-09T15:53:16.404Z,23.40
2018-05-09T15:55:43.923Z,23.30
2018-05-09T15:58:11.504Z,23.20
2018-05-09T16:00:39.104Z,23.20
2018-05-09T16:03:06.535Z,23.10
2018-05-09T16:05:34.023Z,23.00
2018-05-09T16:08:01.508Z,22.90
2018-05-09T16:10:29.117Z,22.60
2018-05-09T16:12:56.607Z,21.90
2018-05-09T16:15:24.854Z,20.80
2018-05-09T16:17:52.355Z,20.80
2018-05-09T16:20:19.834Z,20.20
2018-05-09T16:22:47.417Z,19.60
2018-05-09T16:25:14.958Z,19.40
2018-05-09T16:27:42.478Z,19.40
2018-05-09T16:30:10.728Z,19.70
2018-05-09T16:32:38.247Z,19.70
2018-05-09T16:35:05.741Z,19.80
2018-05-09T16:37:33.269Z,19.90
2018-05-09T16:40:00.744Z,20.00
2018-05-09T16:42:28.284Z,20.10
2018-05-09T16:44:55.751Z,20.10
2018-05-09T16:47:23.227Z,20.10
2018-05-09T16:49:50.701Z,20.20
2018-05-09T16:52:18.963Z,20.20
2018-05-09T16:54:46.481Z,20.10
2018-05-09T16:57:14.041Z,20.00
2018-05-09T16:59:41.581Z,19.90
2018-05-09T17:02:09.109Z,19.80
2018-05-09T17:04:36.574Z,19.80
2018-05-09T17:07:04.877Z,19.70
2018-05-09T17:09:32.399Z,19.70
2018-05-09T17:12:00.663Z,19.60
2018-05-09T17:14:28.180Z,19.60
2018-05-09T17:16:55.704Z,19.50
2018-05-09T17:19:24.009Z,19.40
2018-05-09T17:22:09.252Z,19.30
2018-05-09T17:24:37.483Z,19.20
2018-05-09T17:27:05.008Z,19.20
2018-05-09T17:29:32.517Z,19.10
2018-05-09T17:32:00.041Z,19.00
2018-05-09T17:34:27.584Z,19.00
2018-05-09T17:36:55.118Z,18.90
2018-05-09T17:39:23.320Z,18.70
2018-05-09T17:41:50.857Z,18.70
2018-05-09T17:44:18.403Z,18.70
2018-05-09T17:46:46.674Z,18.60
2018-05-09T17:49:14.152Z,18.50
2018-05-09T17:51:41.696Z,18.50
2018-05-09T17:54:09.936Z,18.30
2018-05-09T17:56:37.421Z,18.30
2018-05-09T17:59:05.679Z,18.00
2018-05-09T18:01:33.235Z,18.00
2018-05-09T18:04:00.735Z,17.90
2018-05-09T18:06:28.999Z,18.00
2018-05-09T18:08:57.326Z,17.90
2018-05-09T18:11:24.856Z,17.90
2018-05-09T18:13:52.321Z,17.80
2018-05-09T18:16:19.826Z,17.70
2018-05-09T18:18:47.332Z,17.60
2018-05-09T18:21:14.849Z,17.50
2018-05-09T18:23:42.331Z,17.30
2018-05-09T18:26:09.834Z,17.30
2018-05-09T18:28:37.306Z,17.30
2018-05-09T18:31:04.782Z,17.30
2018-05-09T18:33:33.119Z,17.10
2018-05-09T18:36:01.299Z,16.90
2018-05-09T18:38:28.788Z,16.90
2018-05-09T18:40:57.075Z,16.80
2018-05-09T18:43:25.361Z,16.80
2018-05-09T18:45:53.601Z,16.70
2018-05-09T18:48:21.079Z,16.70
2018-05-09T18:50:49.357Z,16.40
2018-05-09T18:53:17.594Z,16.20
2018-05-09T18:55:45.890Z,16.00
2018-05-09T18:58:13.387Z,16.00
2018-05-09T19:00:40.855Z,15.90
2018-05-09T19:03:08.349Z,15.70
2018-05-09T19:05:35.888Z,15.60
2018-05-09T19:08:03.416Z,15.50
2018-05-09T19:10:30.903Z,15.40
2018-05-09T19:12:58.399Z,15.40
2018-05-09T19:15:26.671Z,15.50
2018-05-09T19:17:54.173Z,15.60
2018-05-09T19:20:22.415Z,15.60
2018-05-09T19:22:50.700Z,15.50
2018-05-09T19:25:18.977Z,15.40
2018-05-09T19:27:47.223Z,15.30
2018-05-09T19:30:14.742Z,15.30
2018-05-09T19:32:42.280Z,15.20
2018-05-09T19:35:09.799Z,15.10
2018-05-09T19:37:37.316Z,15.10
2018-05-09T19:40:04.803Z,15.10
2018-05-09T19:42:32.318Z,15.00
2018-05-09T19:44:59.823Z,15.00
2018-05-09T19:47:27.337Z,15.00
2018-05-09T19:49:54.849Z,14.90
2018-05-09T19:52:22.318Z,15.00
2018-05-09T19:54:50.621Z,14.90
2018-05-09T19:57:18.152Z,14.90
2018-05-09T19:59:46.440Z,14.50
2018-05-09T20:02:14.683Z,14.30
2018-05-09T20:04:42.232Z,14.20
2018-05-09T20:07:09.749Z,14.20
2018-05-09T20:09:37.276Z,14.00
2018-05-09T20:12:05.522Z,13.80
2018-05-09T20:14:33.051Z,13.70
2018-05-09T20:17:00.584Z,13.60
2018-05-09T20:19:28.125Z,13.50
2018-05-09T20:21:56.401Z,13.40
2018-05-09T20:24:23.916Z,13.50
2018-05-09T20:26:51.440Z,13.50
2018-05-09T20:29:18.953Z,13.50
2018-05-09T20:31:58.488Z,13.50
2018-05-09T20:34:26.000Z,13.50
2018-05-09T20:36:53.533Z,13.40
2018-05-09T20:39:21.791Z,13.20
2018-05-09T20:41:49.297Z,13.20
2018-05-09T20:44:16.790Z,13.10
2018-05-09T20:46:44.271Z,13.00
2018-05-09T20:49:11.805Z,12.90
2018-05-09T20:51:51.362Z,12.90
2018-05-09T20:54:18.875Z,12.80
2018-05-09T20:56:46.370Z,12.90
2018-05-09T20:59:13.896Z,12.90
2018-05-09T21:01:47.160Z,13.00
2018-05-09T21:04:14.682Z,13.00
2018-05-09T21:06:42.154Z,13.00
2018-05-09T21:09:09.722Z,13.00
2018-05-09T21:11:38.009Z,12.90
2018-05-09T21:14:06.322Z,12.80
2018-05-09T21:16:33.811Z,12.80
2018-05-09T21:19:01.296Z,12.70
2018-05-09T21:21:29.596Z,12.50
2018-05-09T21:23:57.074Z,12.50
2018-05-09T21:26:24.588Z,12.40
2018-05-09T21:28:52.836Z,12.40
2018-05-09T21:31:20.323Z,12.40
2018-05-09T21:33:48.588Z,12.30
2018-05-09T21:36:16.876Z,12.20
2018-05-09T21:38:45.114Z,12.20
2018-05-09T21:41:12.594Z,12.10
2018-05-09T21:43:40.835Z,12.10
2018-05-09T21:46:08.376Z,12.00
2018-05-09T21:48:35.848Z,12.00
2018-05-09T21:51:04.323Z,11.90
2018-05-09T21:53:31.805Z,11.90
2018-05-09T21:55:59.374Z,11.90
2018-05-09T21:58:26.853Z,11.80
2018-05-09T22:00:54.388Z,11.70
2018-05-09T22:03:21.909Z,11.60
2018-05-09T22:05:49.474Z,11.50
2018-05-09T22:08:16.991Z,11.30
2018-05-09T22:10:44.600Z,11.30
2018-05-09T22:13:12.818Z,11.20
2018-05-09T22:15:41.089Z,11.20
2018-05-09T22:18:09.322Z,11.20
2018-05-09T22:20:36.859Z,11.10
2018-05-09T22:23:04.369Z,11.00
2018-05-09T22:25:32.619Z,10.90
2018-05-09T22:28:00.173Z,10.80
2018-05-09T22:30:27.697Z,10.80
2018-05-09T22:32:55.166Z,10.80
2018-05-09T22:35:22.700Z,10.70
2018-05-09T22:37:50.963Z,10.70
2018-05-09T22:40:19.213Z,10.80
2018-05-09T22:42:46.736Z,10.80
2018-05-09T22:45:14.218Z,10.80
2018-05-09T22:47:41.724Z,10.70
2018-05-09T22:50:09.262Z,10.60
2018-05-09T22:52:37.524Z,10.50
2018-05-09T22:55:05.012Z,10.60
2018-05-09T22:57:32.499Z,10.50
2018-05-09T22:59:59.967Z,10.40
2018-05-09T23:02:27.476Z,10.30
2018-05-09T23:04:55.756Z,10.20
2018-05-09T23:07:23.227Z,10.20
2018-05-09T23:09:50.699Z,10.20
2018-05-09T23:12:18.186Z,10.30
2018-05-09T23:14:45.683Z,10.30
2018-05-09T23:17:14.044Z,10.20
2018-05-09T23:19:41.533Z,10.20
2018-05-09T23:22:09.061Z,10.20
2018-05-09T23:24:36.526Z,10.20
2018-05-09T23:27:04.778Z,10.10
2018-05-09T23:29:32.298Z,10.20
2018-05-09T23:31:59.854Z,10.20
2018-05-09T23:34:27.342Z,10.10
2018-05-09T23:36:54.875Z,10.00
2018-05-09T23:39:22.371Z,10.00
2018-05-09T23:41:49.903Z,9.90
2018-05-09T23:44:17.370Z,9.90
2018-05-09T23:46:44.843Z,9.90
2018-05-09T23:49:12.320Z,9.90
2018-05-09T23:51:40.608Z,9.80
2018-05-09T23:54:08.090Z,9.80
2018-05-09T23:56:35.608Z,9.80
2018-05-09T23:59:03.879Z,9.60
